createdAt,value
2023-04-03T00:01:03.470Z,8.50
2023-04-03T00:03:31.415Z,8.50
2023-04-03T00:05:59.397Z,8.50
2023-04-03T00:08:31.513Z,8.50
2023-04-03T00:10:59.486Z,8.40
2023-04-03T00:13:27.389Z,8.40
2023-04-03T00:15:55.370Z,8.40
2023-04-03T00:18:23.340Z,8.50
2023-04-03T00:20:51.286Z,8.50
2023-04-03T00:23:19.200Z,8.50
2023-04-03T00:25:48.632Z,8.50
2023-04-03T00:28:16.523Z,8.50
2023-04-03T00:30:44.586Z,8.40
2023-04-03T00:33:13.571Z,8.40
2023-04-03T00:35:41.712Z,8.50
2023-04-03T00:38:09.903Z,8.50
2023-04-03T00:40:38.718Z,8.50
2023-04-03T00:43:12.829Z,8.40
2023-04-03T00:45:42.267Z,8.50
2023-04-03T00:48:12.014Z,8.50
2023-04-03T00:50:43.293Z,8.50
2023-04-03T00:53:12.956Z,8.40
2023-04-03T00:55:41.219Z,8.40
2023-04-03T00:58:11.219Z,8.40
2023-04-03T01:00:40.075Z,8.40
2023-04-03T01:03:07.940Z,8.40
2023-04-03T01:05:35.964Z,8.40
2023-04-03T01:08:03.963Z,8.30
2023-04-03T01:10:32.099Z,8.30
2023-04-03T01:13:01.864Z,8.30
2023-04-03T01:15:35.898Z,8.30
2023-04-03T01:18:05.798Z,8.20
2023-04-03T01:20:43.605Z,8.20
2023-04-03T01:23:27.408Z,8.20
2023-04-03T01:25:56.383Z,8.20
2023-04-03T01:28:25.701Z,8.10
2023-04-03T01:30:57.052Z,8.10
2023-04-03T01:33:26.352Z,8.10
2023-04-03T01:35:54.283Z,8.00
2023-04-03T01:38:22.735Z,8.00
2023-04-03T01:40:50.614Z,8.00
2023-04-03T01:43:18.777Z,7.90
2023-04-03T01:45:47.502Z,7.90
2023-04-03T01:48:16.423Z,7.90
2023-04-03T01:50:45.885Z,7.90
2023-04-03T01:53:13.758Z,7.80
2023-04-03T01:55:41.624Z,7.80
2023-04-03T01:58:09.482Z,7.80
2023-04-03T02:00:37.961Z,7.80
2023-04-03T02:03:06.411Z,7.70
2023-04-03T02:05:34.652Z,7.70
2023-04-03T02:08:03.926Z,7.60
2023-04-03T02:10:31.846Z,7.60
2023-04-03T02:12:59.692Z,7.60
2023-04-03T02:15:27.858Z,7.60
2023-04-03T02:17:55.792Z,7.50
2023-04-03T02:20:23.679Z,7.50
2023-04-03T02:22:51.567Z,7.50
2023-04-03T02:25:21.349Z,7.40
2023-04-03T02:27:49.293Z,7.40
2023-04-03T02:30:17.266Z,7.30
2023-04-03T02:32:45.340Z,7.30
2023-04-03T02:35:13.792Z,7.30
2023-04-03T02:37:41.716Z,7.20
2023-04-03T02:40:09.855Z,7.20
2023-04-03T02:42:39.169Z,7.10
2023-04-03T02:45:07.673Z,7.00
2023-04-03T02:47:35.564Z,7.00
2023-04-03T02:50:03.543Z,6.90
2023-04-03T02:52:31.510Z,6.90
2023-04-03T02:54:59.375Z,6.80
2023-04-03T02:57:27.328Z,6.80
2023-04-03T02:59:56.619Z,6.70
2023-04-03T03:02:24.507Z,6.60
2023-04-03T03:04:52.413Z,6.60
2023-04-03T03:07:20.393Z,6.50
2023-04-03T03:09:48.345Z,6.40
2023-04-03T03:12:16.743Z,6.40
2023-04-03T03:14:44.659Z,6.30
2023-04-03T03:17:13.936Z,6.20
2023-04-03T03:19:41.814Z,6.20
2023-04-03T03:22:09.726Z,6.10
2023-04-03T03:24:37.665Z,6.00
2023-04-03T03:27:05.799Z,6.00
2023-04-03T03:29:33.847Z,5.90
2023-04-03T03:32:01.758Z,5.90
2023-04-03T03:34:30.995Z,5.80
2023-04-03T03:36:59.102Z,5.70
2023-04-03T03:39:27.014Z,5.60
2023-04-03T03:41:55.236Z,5.60
2023-04-03T03:44:23.230Z,5.50
2023-04-03T03:46:51.106Z,5.50
2023-04-03T03:49:19.033Z,5.50
2023-04-03T03:51:48.280Z,5.40
2023-04-03T03:54:16.387Z,5.40
2023-04-03T03:56:44.241Z,5.30
2023-04-03T03:59:13.361Z,5.30
2023-04-03T04:01:41.770Z,5.30
2023-04-03T04:04:09.756Z,5.20
2023-04-03T04:06:37.620Z,5.20
2023-04-03T04:09:06.937Z,5.20
2023-04-03T04:11:35.450Z,5.10
2023-04-03T04:14:04.356Z,5.10
2023-04-03T04:16:32.309Z,5.10
2023-04-03T04:19:00.419Z,5.10
2023-04-03T04:21:28.308Z,5.00
2023-04-03T04:23:56.174Z,5.00
2023-04-03T04:26:25.893Z,5.00
2023-04-03T04:28:53.734Z,5.00
2023-04-03T04:31:21.604Z,4.90
2023-04-03T04:33:49.484Z,4.90
2023-04-03T04:36:17.477Z,4.90
2023-04-03T04:38:45.497Z,4.90
2023-04-03T04:41:13.347Z,4.80
2023-04-03T04:43:42.612Z,4.80
2023-04-03T04:46:12.608Z,4.80
2023-04-03T04:48:41.369Z,4.80
2023-04-03T04:51:09.282Z,4.70
2023-04-03T04:53:37.153Z,4.70
2023-04-03T04:56:05.250Z,4.70
2023-04-03T04:58:33.117Z,4.70
2023-04-03T05:01:02.885Z,4.60
2023-04-03T05:03:30.843Z,4.60
2023-04-03T05:05:58.840Z,4.60
2023-04-03T05:08:26.830Z,4.60
2023-04-03T05:10:56.092Z,4.60
2023-04-03T05:13:24.518Z,4.50
2023-04-03T05:15:52.394Z,4.50
2023-04-03T05:18:21.705Z,4.50
2023-04-03T05:20:50.599Z,4.50
2023-04-03T05:23:18.936Z,4.50
2023-04-03T05:25:47.994Z,4.50
2023-04-03T05:28:15.920Z,4.50
2023-04-03T05:30:43.854Z,4.50
2023-04-03T05:33:12.185Z,4.50
2023-04-03T05:35:42.526Z,4.50
2023-04-03T05:38:10.742Z,4.50
2023-04-03T05:40:38.660Z,4.50
2023-04-03T05:43:06.550Z,4.50
2023-04-03T05:45:34.455Z,4.50
2023-04-03T05:48:02.421Z,4.50
2023-04-03T05:50:31.194Z,4.50
2023-04-03T05:53:01.152Z,4.60
2023-04-03T05:55:29.020Z,4.60
2023-04-03T05:57:57.523Z,4.60
2023-04-03T06:00:25.723Z,4.60
2023-04-03T06:02:53.703Z,4.60
2023-04-03T06:05:21.673Z,4.60
2023-04-03T06:07:50.850Z,4.70
2023-04-03T06:10:21.111Z,4.70
2023-04-03T06:12:49.046Z,4.70
2023-04-03T06:15:18.030Z,4.80
2023-04-03T06:17:46.145Z,4.80
2023-04-03T06:20:14.597Z,4.80
2023-04-03T06:22:42.955Z,4.80
2023-04-03T06:25:12.009Z,4.80
2023-04-03T06:27:41.317Z,4.90
2023-04-03T06:30:09.814Z,4.90
2023-04-03T06:32:37.752Z,4.90
2023-04-03T06:35:06.175Z,5.00
2023-04-03T06:37:34.044Z,5.00
2023-04-03T06:40:02.411Z,5.00
2023-04-03T06:42:30.351Z,5.00
2023-04-03T06:44:59.577Z,5.10
2023-04-03T06:47:27.465Z,5.10
2023-04-03T06:49:55.858Z,5.10
2023-04-03T06:52:23.794Z,5.30
2023-04-03T06:54:57.929Z,5.40
2023-04-03T06:57:26.538Z,5.50
2023-04-03T06:59:54.428Z,5.60
2023-04-03T07:02:23.723Z,5.70
2023-04-03T07:04:51.682Z,5.70
2023-04-03T07:07:19.659Z,5.80
2023-04-03T07:09:48.988Z,5.80
2023-04-03T07:12:16.975Z,5.90
2023-04-03T07:14:44.894Z,6.00
2023-04-03T07:17:12.818Z,6.00
2023-04-03T07:19:42.094Z,6.10
2023-04-03T07:22:10.394Z,6.20
2023-04-03T07:24:38.329Z,6.20
2023-04-03T07:29:26.029Z,6.30
2023-04-03T07:31:54.120Z,6.40
2023-04-03T08:53:00.217Z,6.10
2023-04-03T08:55:31.214Z,6.20
2023-04-03T08:58:03.562Z,6.60
2023-04-03T09:00:47.613Z,7.30
2023-04-03T09:03:18.100Z,7.80
2023-04-03T09:05:53.166Z,8.10
2023-04-03T09:08:29.228Z,8.40
2023-04-03T09:11:08.815Z,8.60
2023-04-03T09:13:45.675Z,8.60
2023-04-03T09:16:29.104Z,8.70
2023-04-03T09:19:00.551Z,8.70
2023-04-03T09:21:36.292Z,8.80
2023-04-03T09:24:08.973Z,8.90
2023-04-03T09:26:44.622Z,9.10
2023-04-03T09:29:18.258Z,9.20
2023-04-03T09:31:47.665Z,9.50
2023-04-03T09:34:23.490Z,9.80
2023-04-03T09:36:53.579Z,10.10
2023-04-03T09:39:25.174Z,10.30
2023-04-03T09:42:02.448Z,10.60
2023-04-03T09:44:32.784Z,10.80
2023-04-03T09:47:01.427Z,11.00
2023-04-03T09:49:29.780Z,11.20
2023-04-03T09:51:57.845Z,11.30
2023-04-03T09:54:39.542Z,11.50
2023-04-03T09:57:12.682Z,11.50
2023-04-03T09:59:44.648Z,11.60
2023-04-03T10:02:40.685Z,11.70
2023-04-03T10:05:33.133Z,11.70
2023-04-03T10:08:13.257Z,11.70
2023-04-03T10:10:43.305Z,11.80
2023-04-03T10:13:21.164Z,11.90
2023-04-03T10:15:54.966Z,11.90
2023-04-03T10:18:29.686Z,12.00
2023-04-03T10:21:02.446Z,12.10
2023-04-03T10:23:42.379Z,12.30
2023-04-03T10:26:19.477Z,12.40
2023-04-03T10:28:55.569Z,12.50
2023-04-03T10:31:31.758Z,12.40
2023-04-03T10:34:08.049Z,12.40
2023-04-03T10:36:41.594Z,12.40
2023-04-03T10:39:22.681Z,12.50
2023-04-03T10:42:15.697Z,12.60
2023-04-03T10:44:54.696Z,12.70
2023-04-03T10:47:27.605Z,12.90
2023-04-03T10:50:03.907Z,13.10
2023-04-03T10:52:41.169Z,13.20
2023-04-03T10:55:25.144Z,13.30
2023-04-03T10:57:58.123Z,13.40
2023-04-03T11:00:32.836Z,13.50
2023-04-03T11:03:05.332Z,13.50
2023-04-03T11:05:39.139Z,13.40
2023-04-03T11:08:13.114Z,13.50
2023-04-03T11:10:44.461Z,13.50
2023-04-03T11:13:18.071Z,13.40
2023-04-03T11:15:47.513Z,13.30
2023-04-03T11:18:19.551Z,13.30
2023-04-03T11:20:55.740Z,13.40
2023-04-03T11:23:32.745Z,13.50
2023-04-03T11:26:13.652Z,13.60
2023-04-03T11:28:43.666Z,13.80
2023-04-03T11:31:29.754Z,14.00
2023-04-03T11:34:07.361Z,14.10
2023-04-03T11:36:41.680Z,14.20
2023-04-03T11:39:19.322Z,14.30
2023-04-03T11:41:47.469Z,14.40
2023-04-03T11:44:34.459Z,14.50
2023-04-03T11:47:03.644Z,14.60
2023-04-03T11:49:59.125Z,14.70
2023-04-03T11:52:58.617Z,14.70
2023-04-03T11:55:58.427Z,14.80
2023-04-03T11:58:28.538Z,14.70
2023-04-03T12:01:04.641Z,14.60
2023-04-03T12:04:09.088Z,14.50
2023-04-03T12:07:20.963Z,14.50
2023-04-03T12:10:30.797Z,14.60
2023-04-03T12:13:05.303Z,14.60
2023-04-03T12:15:51.741Z,14.60
2023-04-03T12:18:45.165Z,14.60
2023-04-03T12:21:14.895Z,14.70
2023-04-03T12:24:04.812Z,14.60
2023-04-03T12:26:45.901Z,14.60
2023-04-03T12:29:19.738Z,14.60
2023-04-03T12:31:56.272Z,14.70
2023-04-03T12:34:55.108Z,14.70
2023-04-03T12:37:39.201Z,14.70
2023-04-03T12:40:17.713Z,14.80
2023-04-03T12:43:09.135Z,14.80
2023-04-03T12:45:45.437Z,14.80
2023-04-03T12:48:18.576Z,14.90
2023-04-03T12:50:50.923Z,15.10
2023-04-03T12:53:21.636Z,15.10
2023-04-03T12:55:49.714Z,15.10
2023-04-03T12:58:24.662Z,15.20
2023-04-03T13:01:03.494Z,15.20
2023-04-03T13:03:32.267Z,15.20
2023-04-03T13:06:04.357Z,15.20
2023-04-03T13:08:33.250Z,15.30
2023-04-03T13:11:06.029Z,15.30
2023-04-03T13:13:34.269Z,15.30
2023-04-03T13:16:10.272Z,15.30
2023-04-03T13:18:40.122Z,15.30
2023-04-03T13:21:17.999Z,15.30
2023-04-03T13:23:53.246Z,15.20
2023-04-03T13:26:32.261Z,15.20
2023-04-03T13:29:03.793Z,15.20
2023-04-03T13:31:34.301Z,15.20
2023-04-03T13:34:07.744Z,15.10
2023-04-03T13:36:39.538Z,15.10
2023-04-03T13:39:19.987Z,15.20
2023-04-03T13:41:49.713Z,15.10
2023-04-03T13:44:25.436Z,15.00
2023-04-03T13:46:55.110Z,15.00
2023-04-03T13:49:29.791Z,14.90
2023-04-03T13:52:07.211Z,14.90
2023-04-03T13:54:39.147Z,14.90
2023-04-03T13:57:15.221Z,14.90
2023-04-03T13:59:44.113Z,14.90
2023-04-03T14:02:18.810Z,14.90
2023-04-03T14:04:50.879Z,15.00
2023-04-03T14:07:21.135Z,15.10
2023-04-03T14:09:49.467Z,15.10
2023-04-03T14:12:30.230Z,15.10
2023-04-03T14:14:59.773Z,15.20
2023-04-03T14:17:29.466Z,15.30
2023-04-03T14:19:59.405Z,15.30
2023-04-03T14:22:32.435Z,15.30
2023-04-03T14:25:01.091Z,15.20
2023-04-03T14:27:32.639Z,15.20
2023-04-03T14:30:01.439Z,15.10
2023-04-03T14:32:29.634Z,15.10
2023-04-03T14:34:59.247Z,15.00
2023-04-03T14:37:31.835Z,15.00
2023-04-03T14:40:02.379Z,15.00
2023-04-03T14:42:32.756Z,14.90
2023-04-03T14:45:01.974Z,14.90
2023-04-03T14:47:32.652Z,14.80
2023-04-03T14:50:02.252Z,14.70
2023-04-03T14:52:35.014Z,14.60
2023-04-03T14:55:05.011Z,14.50
2023-04-03T14:57:33.625Z,14.50
2023-04-03T15:00:02.674Z,14.50
2023-04-03T15:02:32.588Z,14.50
2023-04-03T15:05:05.135Z,14.50
2023-04-03T15:07:36.609Z,14.40
2023-04-03T15:10:15.903Z,14.40
2023-04-03T15:12:44.523Z,14.40
2023-04-03T15:15:12.751Z,14.40
2023-04-03T15:17:41.258Z,14.30
2023-04-03T15:20:15.187Z,14.30
2023-04-03T15:22:45.320Z,14.30
2023-04-03T15:25:13.711Z,14.20
2023-04-03T15:27:42.342Z,14.10
2023-04-03T15:30:15.323Z,14.00
2023-04-03T15:32:43.439Z,13.80
2023-04-03T15:35:11.951Z,13.70
2023-04-03T15:37:40.008Z,13.60
2023-04-03T15:40:10.829Z,13.50
2023-04-03T15:42:39.365Z,13.40
2023-04-03T15:45:09.132Z,13.40
2023-04-03T15:47:37.431Z,13.30
2023-04-03T15:50:07.704Z,13.20
2023-04-03T15:52:35.876Z,13.20
2023-04-03T15:55:04.186Z,13.20
2023-04-03T16:00:01.789Z,13.00
2023-04-03T16:02:30.078Z,12.90
2023-04-03T16:04:58.210Z,12.80
2023-04-03T16:07:26.298Z,12.70
2023-04-03T16:09:54.636Z,12.70
2023-04-03T16:12:22.700Z,12.60
2023-04-03T16:14:52.619Z,12.60
2023-04-03T16:17:20.987Z,12.50
2023-04-03T16:19:49.088Z,12.40
2023-04-03T16:22:17.371Z,12.30
2023-04-03T16:24:45.460Z,12.20
2023-04-03T16:27:13.937Z,12.10
2023-04-03T16:29:42.011Z,12.10
2023-04-03T16:32:11.684Z,12.00
2023-04-03T16:34:41.612Z,12.00
2023-04-03T16:37:10.507Z,11.90
2023-04-03T16:39:38.668Z,11.90
2023-04-03T16:42:06.783Z,11.80
2023-04-03T16:44:34.943Z,11.60
2023-04-03T16:47:03.326Z,11.50
2023-04-03T16:49:34.937Z,11.30
2023-04-03T16:52:04.456Z,11.10
2023-04-03T16:54:33.868Z,10.90
2023-04-03T16:57:01.977Z,10.70
2023-04-03T16:59:30.462Z,10.60
2023-04-03T17:01:58.568Z,10.40
2023-04-03T17:04:27.218Z,10.30
2023-04-03T17:06:56.943Z,10.20
2023-04-03T17:09:25.471Z,10.10
2023-04-03T17:11:54.354Z,10.00
2023-04-03T17:14:22.464Z,9.90
2023-04-03T17:16:50.699Z,9.80
2023-04-03T17:19:18.970Z,9.70
2023-04-03T17:21:47.519Z,9.60
2023-04-03T17:24:17.294Z,9.60
2023-04-03T17:26:45.545Z,9.50
2023-04-03T17:29:13.649Z,9.40
2023-04-03T17:31:41.778Z,9.40
2023-04-03T17:34:12.079Z,9.30
2023-04-03T17:36:42.199Z,9.20
2023-04-03T17:39:10.726Z,9.20
2023-04-03T17:41:40.243Z,9.10
2023-04-03T17:44:08.478Z,9.10
2023-04-03T17:46:36.591Z,9.10
2023-04-03T17:49:05.282Z,9.00
2023-04-03T17:51:34.416Z,8.90
2023-04-03T17:54:02.663Z,8.90
2023-04-03T17:56:30.843Z,8.90
2023-04-03T17:59:00.354Z,8.90
2023-04-03T18:01:30.155Z,8.80
2023-04-03T18:04:00.254Z,8.70
2023-04-03T18:06:31.260Z,8.70
2023-04-03T18:09:05.251Z,8.60
2023-04-03T18:11:33.663Z,8.60
2023-04-03T18:14:04.814Z,8.60
2023-04-03T18:16:33.046Z,8.50
2023-04-03T18:21:32.452Z,8.50
2023-04-03T18:24:02.270Z,8.50
2023-04-03T18:26:31.315Z,8.50
2023-04-03T18:29:04.802Z,8.40
2023-04-03T18:31:34.937Z,8.40
2023-04-03T18:34:03.041Z,8.40
2023-04-03T18:36:31.135Z,8.30
2023-04-03T18:38:59.247Z,8.20
2023-04-03T18:41:32.300Z,8.20
2023-04-03T18:44:02.195Z,8.10
2023-04-03T18:46:33.152Z,8.10
2023-04-03T18:49:01.412Z,8.00
2023-04-03T18:51:29.785Z,7.90
2023-04-03T18:53:57.840Z,7.80
2023-04-03T18:56:26.357Z,7.80
2023-04-03T18:58:54.467Z,7.70
2023-04-03T19:01:22.682Z,7.70
2023-04-03T19:03:52.210Z,7.70
2023-04-03T19:06:20.497Z,7.60
2023-04-03T19:08:49.523Z,7.60
2023-04-03T19:11:17.599Z,7.50
2023-04-03T19:14:04.266Z,7.40
2023-04-03T19:16:35.412Z,7.40
2023-04-03T19:19:04.898Z,7.30
2023-04-03T19:21:33.038Z,7.30
2023-04-03T19:24:01.116Z,7.20
2023-04-03T19:26:29.215Z,7.20
2023-04-03T19:28:57.261Z,7.10
2023-04-03T19:31:25.372Z,7.10
2023-04-03T19:33:53.458Z,7.00
2023-04-03T19:36:22.867Z,7.00
2023-04-03T19:38:51.029Z,6.90
2023-04-03T19:41:22.589Z,6.90
2023-04-03T19:43:52.974Z,6.80
2023-04-03T19:46:23.751Z,6.80
2023-04-03T19:48:52.220Z,6.80
2023-04-03T19:51:20.597Z,6.70
2023-04-03T19:53:50.058Z,6.60
2023-04-03T19:56:18.186Z,6.60
2023-04-03T19:58:53.399Z,6.60
2023-04-03T20:01:22.672Z,6.50
2023-04-03T20:03:50.998Z,6.50
2023-04-03T20:06:19.083Z,6.50
2023-04-03T20:08:47.186Z,6.40
2023-04-03T20:11:16.834Z,6.40
2023-04-03T20:13:46.776Z,6.40
2023-04-03T20:16:14.879Z,6.30
2023-04-03T20:18:43.245Z,6.30
2023-04-03T20:21:12.159Z,6.30
2023-04-03T20:23:40.406Z,6.20
2023-04-03T20:26:11.701Z,6.20
2023-04-03T20:28:45.398Z,6.10
2023-04-03T20:31:13.669Z,6.10
2023-04-03T20:33:41.831Z,6.00
2023-04-03T20:36:10.606Z,6.00
2023-04-03T20:38:38.677Z,6.00
2023-04-03T20:41:06.751Z,5.90
2023-04-03T20:43:35.301Z,5.90
2023-04-03T20:46:04.990Z,5.90
2023-04-03T20:48:33.324Z,5.90
2023-04-03T20:51:10.317Z,5.80
2023-04-03T20:53:38.653Z,5.80
2023-04-03T20:56:09.072Z,5.80
2023-04-03T20:58:39.525Z,5.80
2023-04-03T21:01:17.210Z,5.70
2023-04-03T21:03:46.371Z,5.70
2023-04-03T21:06:52.097Z,5.70
2023-04-03T21:09:58.109Z,5.70
2023-04-03T21:13:04.072Z,5.60
2023-04-03T21:15:55.192Z,5.60
2023-04-03T21:18:53.341Z,5.50
2023-04-03T21:21:24.377Z,5.50
2023-04-03T21:23:54.065Z,5.50
2023-04-03T21:26:23.386Z,5.40
2023-04-03T21:28:52.807Z,5.40
2023-04-03T21:31:22.656Z,5.40
2023-04-03T21:33:53.893Z,5.40
2023-04-03T21:36:21.988Z,5.40
2023-04-03T21:38:51.064Z,5.40
2023-04-03T21:41:19.128Z,5.40
2023-04-03T21:43:48.045Z,5.40
2023-04-03T21:46:16.257Z,5.30
2023-04-03T21:48:47.025Z,5.30
2023-04-03T21:51:17.250Z,5.40
2023-04-03T21:53:46.578Z,5.30
2023-04-03T21:56:14.642Z,5.30
2023-04-03T21:58:42.766Z,5.30
2023-04-03T22:01:11.824Z,5.30
2023-04-03T22:03:41.395Z,5.30
2023-04-03T22:06:10.206Z,5.20
2023-04-03T22:08:39.848Z,5.30
2023-04-03T22:11:09.849Z,5.20
2023-04-03T22:13:38.474Z,5.20
2023-04-03T22:16:07.335Z,5.20
2023-04-03T22:18:36.392Z,5.10
2023-04-03T22:21:04.903Z,5.10
2023-04-03T22:23:32.982Z,5.10
2023-04-03T22:26:04.737Z,5.10
2023-04-03T22:28:34.562Z,5.10
2023-04-03T22:31:03.879Z,5.10
2023-04-03T22:33:32.078Z,5.10
2023-04-03T22:36:00.250Z,5.10
2023-04-03T22:38:28.409Z,5.10
2023-04-03T22:41:00.272Z,5.20
2023-04-03T22:43:31.978Z,5.20
2023-04-03T22:46:01.803Z,5.20
2023-04-03T22:48:30.807Z,5.20
2023-04-03T22:50:59.112Z,5.20
2023-04-03T22:53:27.183Z,5.10
2023-04-03T22:55:56.500Z,5.10
2023-04-03T22:58:26.437Z,5.10
2023-04-03T23:00:57.717Z,5.10
2023-04-03T23:03:26.005Z,5.10
2023-04-03T23:05:56.138Z,5.10
2023-04-03T23:08:24.404Z,5.10
2023-04-03T23:10:56.507Z,5.10
2023-04-03T23:13:25.158Z,5.00
2023-04-03T23:15:58.552Z,5.00
2023-04-03T23:18:29.530Z,5.00
2023-04-03T23:20:59.564Z,5.00
2023-04-03T23:23:27.778Z,5.00
2023-04-03T23:25:56.945Z,5.00
2023-04-03T23:28:25.504Z,5.00
2023-04-03T23:31:01.635Z,4.90
2023-04-03T23:33:30.526Z,4.90
2023-04-03T23:35:59.559Z,4.90
2023-04-03T23:38:27.863Z,4.90
2023-04-03T23:40:56.069Z,4.90
2023-04-03T23:43:24.145Z,4.90
2023-04-03T23:45:52.703Z,4.90
2023-04-03T23:48:22.246Z,4.90
2023-04-03T23:50:50.338Z,4.80
2023-04-03T23:53:18.497Z,4.80
2023-04-03T23:55:46.651Z,4.80
2023-04-03T23:58:14.728Z,4.80
